sensor_id;sensor_type;location;lat;lon;timestamp;temperature;humidity
25482;DHT22;13395;50.752;4.268;2023-11-21T00:01:57;11.00;99.90
25482;DHT22;13395;50.752;4.268;2023-11-21T00:04:23;11.10;99.90
25482;DHT22;13395;50.752;4.268;2023-11-21T00:06:49;11.00;99.90
25482;DHT22;13395;50.752;4.268;2023-11-21T00:09:15;11.00;99.90
25482;DHT22;13395;50.752;4.268;2023-11-21T00:11:41;10.90;99.90
25482;DHT22;13395;50.752;4.268;2023-11-21T00:14:07;10.90;99.90
25482;DHT22;13395;50.752;4.268;2023-11-21T00:16:33;10.90;99.90
25482;DHT22;13395;50.752;4.268;2023-11-21T00:18:59;10.90;99.90
25482;DHT22;13395;50.752;4.268;2023-11-21T00:21:25;10.90;99.90
25482;DHT22;13395;50.752;4.268;2023-11-21T00:23:50;11.20;99.90
25482;DHT22;13395;50.752;4.268;2023-11-21T00:26:16;11.00;99.90
25482;DHT22;13395;50.752;4.268;2023-11-21T00:28:42;10.80;99.90
25482;DHT22;13395;50.752;4.268;2023-11-21T00:31:07;10.80;99.90
25482;DHT22;13395;50.752;4.268;2023-11-21T00:33:33;10.90;99.90
25482;DHT22;13395;50.752;4.268;2023-11-21T00:36:00;10.80;99.90
25482;DHT22;13395;50.752;4.268;2023-11-21T00:38:26;10.60;99.90
25482;DHT22;13395;50.752;4.268;2023-11-21T00:40:53;10.50;99.90
25482;DHT22;13395;50.752;4.268;2023-11-21T00:43:22;10.40;99.90
25482;DHT22;13395;50.752;4.268;2023-11-21T00:45:48;10.40;99.90
25482;DHT22;13395;50.752;4.268;2023-11-21T00:48:14;10.30;99.90
25482;DHT22;13395;50.752;4.268;2023-11-21T00:50:40;10.20;99.90
25482;DHT22;13395;50.752;4.268;2023-11-21T00:53:06;10.10;99.90
25482;DHT22;13395;50.752;4.268;2023-11-21T00:55:33;10.00;99.90
25482;DHT22;13395;50.752;4.268;2023-11-21T00:57:58;10.00;99.90
25482;DHT22;13395;50.752;4.268;2023-11-21T01:00:25;9.80;99.90
25482;DHT22;13395;50.752;4.268;2023-11-21T01:02:51;9.90;99.90
25482;DHT22;13395;50.752;4.268;2023-11-21T01:05:17;9.80;99.90
25482;DHT22;13395;50.752;4.268;2023-11-21T01:07:42;9.60;99.90
25482;DHT22;13395;50.752;4.268;2023-11-21T01:10:09;9.50;99.90
25482;DHT22;13395;50.752;4.268;2023-11-21T01:12:36;9.50;99.90
25482;DHT22;13395;50.752;4.268;2023-11-21T01:15:04;9.50;99.90
25482;DHT22;13395;50.752;4.268;2023-11-21T01:17:32;9.50;99.90
25482;DHT22;13395;50.752;4.268;2023-11-21T01:19:59;9.60;99.90
25482;DHT22;13395;50.752;4.268;2023-11-21T01:22:25;9.60;99.90
25482;DHT22;13395;50.752;4.268;2023-11-21T01:24:53;9.80;99.90
25482;DHT22;13395;50.752;4.268;2023-11-21T01:27:19;9.80;99.90
25482;DHT22;13395;50.752;4.268;2023-11-21T01:29:44;9.90;99.90
25482;DHT22;13395;50.752;4.268;2023-11-21T01:32:10;9.90;99.90
25482;DHT22;13395;50.752;4.268;2023-11-21T01:34:36;9.90;99.90
25482;DHT22;13395;50.752;4.268;2023-11-21T01:37:02;10.00;99.90
25482;DHT22;13395;50.752;4.268;2023-11-21T01:39:30;10.00;99.90
25482;DHT22;13395;50.752;4.268;2023-11-21T01:41:55;10.10;99.90
25482;DHT22;13395;50.752;4.268;2023-11-21T01:44:24;10.10;99.90
25482;DHT22;13395;50.752;4.268;2023-11-21T01:46:50;10.10;99.90
25482;DHT22;13395;50.752;4.268;2023-11-21T01:49:18;10.10;99.90
25482;DHT22;13395;50.752;4.268;2023-11-21T01:51:48;10.30;99.90
25482;DHT22;13395;50.752;4.268;2023-11-21T01:54:19;10.20;99.90
25482;DHT22;13395;50.752;4.268;2023-11-21T01:56:46;10.30;99.90
25482;DHT22;13395;50.752;4.268;2023-11-21T01:59:14;10.40;99.90
25482;DHT22;13395;50.752;4.268;2023-11-21T02:01:43;10.30;99.90
25482;DHT22;13395;50.752;4.268;2023-11-21T02:04:09;10.30;99.90
25482;DHT22;13395;50.752;4.268;2023-11-21T02:06:35;10.30;99.90
25482;DHT22;13395;50.752;4.268;2023-11-21T02:09:01;10.40;99.90
25482;DHT22;13395;50.752;4.268;2023-11-21T02:11:26;10.30;99.90
25482;DHT22;13395;50.752;4.268;2023-11-21T02:13:53;10.40;99.90
25482;DHT22;13395;50.752;4.268;2023-11-21T02:16:19;10.50;99.90
25482;DHT22;13395;50.752;4.268;2023-11-21T02:18:47;10.50;99.90
25482;DHT22;13395;50.752;4.268;2023-11-21T02:21:14;10.60;99.90
25482;DHT22;13395;50.752;4.268;2023-11-21T02:23:40;10.80;99.90
25482;DHT22;13395;50.752;4.268;2023-11-21T02:26:10;10.60;99.90
25482;DHT22;13395;50.752;4.268;2023-11-21T02:28:36;10.60;99.90
25482;DHT22;13395;50.752;4.268;2023-11-21T02:31:02;10.70;99.90
25482;DHT22;13395;50.752;4.268;2023-11-21T02:33:30;10.70;99.90
25482;DHT22;13395;50.752;4.268;2023-11-21T02:36:02;10.80;99.90
25482;DHT22;13395;50.752;4.268;2023-11-21T02:38:27;10.70;99.90
25482;DHT22;13395;50.752;4.268;2023-11-21T02:40:53;10.80;99.90
25482;DHT22;13395;50.752;4.268;2023-11-21T02:43:19;10.70;99.90
25482;DHT22;13395;50.752;4.268;2023-11-21T02:45:44;10.80;99.90
25482;DHT22;13395;50.752;4.268;2023-11-21T02:48:10;10.70;99.90
25482;DHT22;13395;50.752;4.268;2023-11-21T02:50:36;10.70;99.90
25482;DHT22;13395;50.752;4.268;2023-11-21T02:53:03;10.70;99.90
25482;DHT22;13395;50.752;4.268;2023-11-21T02:55:31;10.70;99.90
25482;DHT22;13395;50.752;4.268;2023-11-21T02:58:00;10.70;99.90
25482;DHT22;13395;50.752;4.268;2023-11-21T03:00:25;10.70;99.90
25482;DHT22;13395;50.752;4.268;2023-11-21T03:02:51;10.80;99.90
25482;DHT22;13395;50.752;4.268;2023-11-21T03:05:17;10.80;99.90
25482;DHT22;13395;50.752;4.268;2023-11-21T03:07:42;10.80;99.90
25482;DHT22;13395;50.752;4.268;2023-11-21T03:10:08;10.80;99.90
25482;DHT22;13395;50.752;4.268;2023-11-21T03:12:39;10.90;99.90
25482;DHT22;13395;50.752;4.268;2023-11-21T03:15:06;10.80;99.90
25482;DHT22;13395;50.752;4.268;2023-11-21T03:17:32;10.80;99.90
25482;DHT22;13395;50.752;4.268;2023-11-21T03:19:59;10.80;99.90
25482;DHT22;13395;50.752;4.268;2023-11-21T03:22:25;10.80;99.90
25482;DHT22;13395;50.752;4.268;2023-11-21T03:24:52;11.10;99.90
25482;DHT22;13395;50.752;4.268;2023-11-21T03:27:18;10.90;99.90
25482;DHT22;13395;50.752;4.268;2023-11-21T03:29:44;10.90;99.90
25482;DHT22;13395;50.752;4.268;2023-11-21T03:32:12;10.90;99.90
25482;DHT22;13395;50.752;4.268;2023-11-21T03:34:56;10.90;99.90
25482;DHT22;13395;50.752;4.268;2023-11-21T03:37:22;10.90;99.90
25482;DHT22;13395;50.752;4.268;2023-11-21T03:39:48;10.80;99.90
25482;DHT22;13395;50.752;4.268;2023-11-21T03:42:13;10.70;99.90
25482;DHT22;13395;50.752;4.268;2023-11-21T03:44:39;10.70;99.90
25482;DHT22;13395;50.752;4.268;2023-11-21T03:47:05;10.70;99.90
25482;DHT22;13395;50.752;4.268;2023-11-21T03:49:30;10.80;99.90
25482;DHT22;13395;50.752;4.268;2023-11-21T03:51:56;10.80;99.90
25482;DHT22;13395;50.752;4.268;2023-11-21T03:54:22;10.80;99.90
25482;DHT22;13395;50.752;4.268;2023-11-21T03:56:47;10.80;99.90
25482;DHT22;13395;50.752;4.268;2023-11-21T03:59:13;10.70;99.90
25482;DHT22;13395;50.752;4.268;2023-11-21T04:01:38;10.70;99.90
25482;DHT22;13395;50.752;4.268;2023-11-21T04:04:04;10.80;99.90
25482;DHT22;13395;50.752;4.268;2023-11-21T04:06:30;10.80;99.90
25482;DHT22;13395;50.752;4.268;2023-11-21T04:08:55;10.80;99.90
25482;DHT22;13395;50.752;4.268;2023-11-21T04:11:21;10.80;99.90
25482;DHT22;13395;50.752;4.268;2023-11-21T04:13:46;10.90;99.90
25482;DHT22;13395;50.752;4.268;2023-11-21T04:16:12;11.00;99.90
25482;DHT22;13395;50.752;4.268;2023-11-21T04:18:38;11.10;99.90
25482;DHT22;13395;50.752;4.268;2023-11-21T04:21:07;10.90;99.90
25482;DHT22;13395;50.752;4.268;2023-11-21T04:23:33;10.90;99.90
25482;DHT22;13395;50.752;4.268;2023-11-21T04:25:59;10.90;99.90
25482;DHT22;13395;50.752;4.268;2023-11-21T04:28:25;10.90;99.90
25482;DHT22;13395;50.752;4.268;2023-11-21T04:30:51;11.00;99.90
25482;DHT22;13395;50.752;4.268;2023-11-21T04:33:16;11.20;99.90
25482;DHT22;13395;50.752;4.268;2023-11-21T04:35:42;11.10;99.90
25482;DHT22;13395;50.752;4.268;2023-11-21T04:38:08;10.90;99.90
25482;DHT22;13395;50.752;4.268;2023-11-21T04:40:33;10.90;99.90
25482;DHT22;13395;50.752;4.268;2023-11-21T04:42:59;11.00;99.90
25482;DHT22;13395;50.752;4.268;2023-11-21T04:45:24;10.90;99.90
25482;DHT22;13395;50.752;4.268;2023-11-21T04:47:50;10.90;99.90
25482;DHT22;13395;50.752;4.268;2023-11-21T04:50:17;10.90;99.90
25482;DHT22;13395;50.752;4.268;2023-11-21T04:52:42;10.90;99.90
25482;DHT22;13395;50.752;4.268;2023-11-21T04:55:08;11.10;99.90
25482;DHT22;13395;50.752;4.268;2023-11-21T04:57:36;10.90;99.90
25482;DHT22;13395;50.752;4.268;2023-11-21T05:00:02;11.00;99.90
25482;DHT22;13395;50.752;4.268;2023-11-21T05:02:31;10.90;99.90
25482;DHT22;13395;50.752;4.268;2023-11-21T05:04:57;10.90;99.90
25482;DHT22;13395;50.752;4.268;2023-11-21T05:07:23;10.90;99.90
25482;DHT22;13395;50.752;4.268;2023-11-21T05:09:49;10.90;99.90
25482;DHT22;13395;50.752;4.268;2023-11-21T05:12:15;10.80;99.90
25482;DHT22;13395;50.752;4.268;2023-11-21T05:14:41;10.80;99.90
25482;DHT22;13395;50.752;4.268;2023-11-21T05:17:07;10.90;99.90
25482;DHT22;13395;50.752;4.268;2023-11-21T05:19:33;10.90;99.90
25482;DHT22;13395;50.752;4.268;2023-11-21T05:22:00;10.90;99.90
25482;DHT22;13395;50.752;4.268;2023-11-21T05:24:26;10.90;99.90
25482;DHT22;13395;50.752;4.268;2023-11-21T05:26:52;10.90;99.90
25482;DHT22;13395;50.752;4.268;2023-11-21T05:29:18;10.90;99.90
25482;DHT22;13395;50.752;4.268;2023-11-21T05:31:44;10.90;99.90
25482;DHT22;13395;50.752;4.268;2023-11-21T05:34:09;11.00;99.90
25482;DHT22;13395;50.752;4.268;2023-11-21T05:36:35;11.20;99.90
25482;DHT22;13395;50.752;4.268;2023-11-21T05:39:00;10.90;99.90
25482;DHT22;13395;50.752;4.268;2023-11-21T05:41:26;10.90;99.90
25482;DHT22;13395;50.752;4.268;2023-11-21T05:43:51;10.90;99.90
25482;DHT22;13395;50.752;4.268;2023-11-21T05:46:19;10.80;99.90
25482;DHT22;13395;50.752;4.268;2023-11-21T05:48:45;10.90;99.90
25482;DHT22;13395;50.752;4.268;2023-11-21T05:51:11;11.00;99.90
25482;DHT22;13395;50.752;4.268;2023-11-21T05:53:38;11.00;99.90
25482;DHT22;13395;50.752;4.268;2023-11-21T05:56:03;10.90;99.90
25482;DHT22;13395;50.752;4.268;2023-11-21T05:58:29;10.90;99.90
25482;DHT22;13395;50.752;4.268;2023-11-21T06:00:55;10.90;99.90
25482;DHT22;13395;50.752;4.268;2023-11-21T06:03:20;11.00;99.90
25482;DHT22;13395;50.752;4.268;2023-11-21T06:05:46;11.10;99.90
25482;DHT22;13395;50.752;4.268;2023-11-21T06:08:11;11.00;99.90
25482;DHT22;13395;50.752;4.268;2023-11-21T06:10:37;11.00;99.90
25482;DHT22;13395;50.752;4.268;2023-11-21T06:13:02;11.20;99.90
25482;DHT22;13395;50.752;4.268;2023-11-21T06:15:29;11.00;99.90
25482;DHT22;13395;50.752;4.268;2023-11-21T06:17:55;11.10;99.90
25482;DHT22;13395;50.752;4.268;2023-11-21T06:20:21;11.10;99.90
25482;DHT22;13395;50.752;4.268;2023-11-21T06:22:49;11.10;99.90
25482;DHT22;13395;50.752;4.268;2023-11-21T06:25:15;11.10;99.90
25482;DHT22;13395;50.752;4.268;2023-11-21T06:27:45;11.10;99.90
25482;DHT22;13395;50.752;4.268;2023-11-21T06:30:13;11.00;99.90
25482;DHT22;13395;50.752;4.268;2023-11-21T06:32:39;11.10;99.90
25482;DHT22;13395;50.752;4.268;2023-11-21T06:35:06;11.00;99.90
25482;DHT22;13395;50.752;4.268;2023-11-21T06:37:32;11.10;99.90
25482;DHT22;13395;50.752;4.268;2023-11-21T06:39:58;11.20;99.90
25482;DHT22;13395;50.752;4.268;2023-11-21T06:42:25;11.30;99.90
25482;DHT22;13395;50.752;4.268;2023-11-21T06:44:51;11.20;99.90
25482;DHT22;13395;50.752;4.268;2023-11-21T06:47:23;11.20;99.90
25482;DHT22;13395;50.752;4.268;2023-11-21T06:49:52;11.10;99.90
25482;DHT22;13395;50.752;4.268;2023-11-21T06:52:18;11.20;99.90
25482;DHT22;13395;50.752;4.268;2023-11-21T06:54:45;11.40;99.90
25482;DHT22;13395;50.752;4.268;2023-11-21T06:57:11;11.10;99.90
25482;DHT22;13395;50.752;4.268;2023-11-21T06:59:37;11.30;99.90
25482;DHT22;13395;50.752;4.268;2023-11-21T07:02:03;11.10;99.90
25482;DHT22;13395;50.752;4.268;2023-11-21T07:04:30;11.30;99.90
25482;DHT22;13395;50.752;4.268;2023-11-21T07:06:55;11.20;99.90
25482;DHT22;13395;50.752;4.268;2023-11-21T07:09:21;11.20;99.90
25482;DHT22;13395;50.752;4.268;2023-11-21T07:11:48;11.40;99.90
25482;DHT22;13395;50.752;4.268;2023-11-21T07:14:14;11.20;99.90
25482;DHT22;13395;50.752;4.268;2023-11-21T07:16:40;11.30;99.90
25482;DHT22;13395;50.752;4.268;2023-11-21T07:19:06;11.50;99.90
25482;DHT22;13395;50.752;4.268;2023-11-21T07:21:35;11.40;99.90
25482;DHT22;13395;50.752;4.268;2023-11-21T07:24:02;11.30;99.90
25482;DHT22;13395;50.752;4.268;2023-11-21T07:26:27;11.20;99.90
25482;DHT22;13395;50.752;4.268;2023-11-21T07:28:54;11.20;99.90
25482;DHT22;13395;50.752;4.268;2023-11-21T07:31:20;11.20;99.90
25482;DHT22;13395;50.752;4.268;2023-11-21T07:33:46;11.30;99.90
25482;DHT22;13395;50.752;4.268;2023-11-21T07:36:15;11.50;99.90
25482;DHT22;13395;50.752;4.268;2023-11-21T07:38:42;11.40;99.90
25482;DHT22;13395;50.752;4.268;2023-11-21T07:41:08;11.40;99.90
25482;DHT22;13395;50.752;4.268;2023-11-21T07:43:37;11.40;99.90
25482;DHT22;13395;50.752;4.268;2023-11-21T07:46:04;11.50;99.90
25482;DHT22;13395;50.752;4.268;2023-11-21T07:48:33;11.60;99.90
25482;DHT22;13395;50.752;4.268;2023-11-21T07:51:00;11.50;99.90
25482;DHT22;13395;50.752;4.268;2023-11-21T07:53:26;11.70;99.90
25482;DHT22;13395;50.752;4.268;2023-11-21T07:55:54;11.50;99.90
25482;DHT22;13395;50.752;4.268;2023-11-21T07:58:20;11.60;99.90
25482;DHT22;13395;50.752;4.268;2023-11-21T08:00:46;11.60;99.90
25482;DHT22;13395;50.752;4.268;2023-11-21T08:03:13;11.60;99.90
25482;DHT22;13395;50.752;4.268;2023-11-21T08:05:39;11.60;99.90
25482;DHT22;13395;50.752;4.268;2023-11-21T08:08:05;11.60;99.90
25482;DHT22;13395;50.752;4.268;2023-11-21T08:10:30;11.70;99.90
25482;DHT22;13395;50.752;4.268;2023-11-21T08:12:56;11.70;99.90
25482;DHT22;13395;50.752;4.268;2023-11-21T08:15:21;11.70;99.90
25482;DHT22;13395;50.752;4.268;2023-11-21T08:17:48;11.70;99.90
25482;DHT22;13395;50.752;4.268;2023-11-21T08:20:14;11.60;99.90
25482;DHT22;13395;50.752;4.268;2023-11-21T08:22:44;11.60;99.90
25482;DHT22;13395;50.752;4.268;2023-11-21T08:25:10;11.60;99.90
25482;DHT22;13395;50.752;4.268;2023-11-21T08:27:35;11.80;99.90
25482;DHT22;13395;50.752;4.268;2023-11-21T08:30:03;12.00;99.90
25482;DHT22;13395;50.752;4.268;2023-11-21T08:32:29;11.90;99.90
25482;DHT22;13395;50.752;4.268;2023-11-21T08:34:57;11.90;99.90
25482;DHT22;13395;50.752;4.268;2023-11-21T08:37:23;12.00;99.90
25482;DHT22;13395;50.752;4.268;2023-11-21T08:39:49;11.90;99.90
25482;DHT22;13395;50.752;4.268;2023-11-21T08:42:15;11.90;99.90
25482;DHT22;13395;50.752;4.268;2023-11-21T08:44:40;12.00;99.90
25482;DHT22;13395;50.752;4.268;2023-11-21T08:47:06;12.10;99.90
25482;DHT22;13395;50.752;4.268;2023-11-21T08:49:32;11.90;99.90
25482;DHT22;13395;50.752;4.268;2023-11-21T08:51:58;11.90;99.90
25482;DHT22;13395;50.752;4.268;2023-11-21T08:54:25;11.80;99.90
25482;DHT22;13395;50.752;4.268;2023-11-21T08:56:52;11.90;99.90
25482;DHT22;13395;50.752;4.268;2023-11-21T08:59:18;11.90;99.90
25482;DHT22;13395;50.752;4.268;2023-11-21T09:01:45;12.00;99.90
25482;DHT22;13395;50.752;4.268;2023-11-21T09:04:12;12.10;99.90
25482;DHT22;13395;50.752;4.268;2023-11-21T09:06:39;12.20;99.90
25482;DHT22;13395;50.752;4.268;2023-11-21T09:09:05;12.30;99.90
25482;DHT22;13395;50.752;4.268;2023-11-21T09:11:31;12.20;99.90
25482;DHT22;13395;50.752;4.268;2023-11-21T09:13:59;12.30;99.90
25482;DHT22;13395;50.752;4.268;2023-11-21T09:16:25;12.20;99.90
25482;DHT22;13395;50.752;4.268;2023-11-21T09:18:50;12.30;99.90
25482;DHT22;13395;50.752;4.268;2023-11-21T09:21:16;12.40;99.90
25482;DHT22;13395;50.752;4.268;2023-11-21T09:23:44;12.40;99.90
25482;DHT22;13395;50.752;4.268;2023-11-21T09:26:10;12.40;99.90
25482;DHT22;13395;50.752;4.268;2023-11-21T09:28:35;12.30;99.90
25482;DHT22;13395;50.752;4.268;2023-11-21T09:31:04;12.30;99.90
25482;DHT22;13395;50.752;4.268;2023-11-21T09:33:30;12.40;99.90
25482;DHT22;13395;50.752;4.268;2023-11-21T09:35:56;12.50;99.90
25482;DHT22;13395;50.752;4.268;2023-11-21T09:38:22;12.50;99.90
25482;DHT22;13395;50.752;4.268;2023-11-21T09:40:48;12.50;99.90
25482;DHT22;13395;50.752;4.268;2023-11-21T09:43:18;12.50;99.90
25482;DHT22;13395;50.752;4.268;2023-11-21T09:45:48;12.50;99.90
25482;DHT22;13395;50.752;4.268;2023-11-21T09:48:17;12.50;99.90
25482;DHT22;13395;50.752;4.268;2023-11-21T09:50:43;12.50;99.90
25482;DHT22;13395;50.752;4.268;2023-11-21T09:53:17;12.60;99.90
25482;DHT22;13395;50.752;4.268;2023-11-21T09:55:46;12.60;99.90
25482;DHT22;13395;50.752;4.268;2023-11-21T09:58:13;12.60;99.90
25482;DHT22;13395;50.752;4.268;2023-11-21T10:00:44;12.60;99.90
25482;DHT22;13395;50.752;4.268;2023-11-21T10:03:10;12.70;99.90
25482;DHT22;13395;50.752;4.268;2023-11-21T10:05:37;12.70;99.90
25482;DHT22;13395;50.752;4.268;2023-11-21T10:08:10;12.70;99.90
25482;DHT22;13395;50.752;4.268;2023-11-21T10:10:46;12.60;99.90
25482;DHT22;13395;50.752;4.268;2023-11-21T10:13:14;12.60;99.90
25482;DHT22;13395;50.752;4.268;2023-11-21T10:15:43;12.60;99.90
25482;DHT22;13395;50.752;4.268;2023-11-21T10:18:14;12.80;99.90
25482;DHT22;13395;50.752;4.268;2023-11-21T10:20:41;12.60;99.90
25482;DHT22;13395;50.752;4.268;2023-11-21T10:23:07;12.70;99.90
25482;DHT22;13395;50.752;4.268;2023-11-21T10:25:36;12.70;99.90
25482;DHT22;13395;50.752;4.268;2023-11-21T10:28:03;12.50;99.90
25482;DHT22;13395;50.752;4.268;2023-11-21T10:30:36;12.50;99.90
25482;DHT22;13395;50.752;4.268;2023-11-21T10:33:04;12.60;99.90
25482;DHT22;13395;50.752;4.268;2023-11-21T10:35:42;12.80;99.90
25482;DHT22;13395;50.752;4.268;2023-11-21T10:38:12;12.90;99.90
25482;DHT22;13395;50.752;4.268;2023-11-21T10:40:42;12.90;99.90
25482;DHT22;13395;50.752;4.268;2023-11-21T10:43:11;13.00;99.90
25482;DHT22;13395;50.752;4.268;2023-11-21T10:45:41;13.10;99.90
25482;DHT22;13395;50.752;4.268;2023-11-21T10:48:14;13.10;99.90
25482;DHT22;13395;50.752;4.268;2023-11-21T10:50:41;13.00;99.90
25482;DHT22;13395;50.752;4.268;2023-11-21T10:53:06;13.10;99.90
25482;DHT22;13395;50.752;4.268;2023-11-21T10:55:33;12.90;99.90
25482;DHT22;13395;50.752;4.268;2023-11-21T10:58:02;13.20;99.90
25482;DHT22;13395;50.752;4.268;2023-11-21T11:00:30;13.50;99.90
25482;DHT22;13395;50.752;4.268;2023-11-21T11:02:56;13.50;99.90
25482;DHT22;13395;50.752;4.268;2023-11-21T11:05:25;13.50;99.90
25482;DHT22;13395;50.752;4.268;2023-11-21T11:07:58;13.80;99.90
25482;DHT22;13395;50.752;4.268;2023-11-21T11:10:26;14.10;99.90
25482;DHT22;13395;50.752;4.268;2023-11-21T11:12:55;14.20;99.90
25482;DHT22;13395;50.752;4.268;2023-11-21T11:15:23;13.90;99.90
25482;DHT22;13395;50.752;4.268;2023-11-21T11:17:49;13.90;99.90
25482;DHT22;13395;50.752;4.268;2023-11-21T11:20:16;13.90;99.90
25482;DHT22;13395;50.752;4.268;2023-11-21T11:22:59;14.00;99.90
25482;DHT22;13395;50.752;4.268;2023-11-21T11:25:53;14.00;99.90
25482;DHT22;13395;50.752;4.268;2023-11-21T11:28:38;14.00;99.90
25482;DHT22;13395;50.752;4.268;2023-11-21T11:31:14;13.90;99.90
25482;DHT22;13395;50.752;4.268;2023-11-21T11:33:51;13.90;99.90
25482;DHT22;13395;50.752;4.268;2023-11-21T11:38:59;13.80;99.90
25482;DHT22;13395;50.752;4.268;2023-11-21T11:41:30;13.80;99.90
25482;DHT22;13395;50.752;4.268;2023-11-21T11:43:58;13.80;99.90
25482;DHT22;13395;50.752;4.268;2023-11-21T11:46:53;13.80;99.90
25482;DHT22;13395;50.752;4.268;2023-11-21T11:49:28;13.70;99.90
25482;DHT22;13395;50.752;4.268;2023-11-21T11:54:58;13.70;99.90
25482;DHT22;13395;50.752;4.268;2023-11-21T11:57:24;13.50;99.90
25482;DHT22;13395;50.752;4.268;2023-11-21T12:02:44;13.60;99.90
25482;DHT22;13395;50.752;4.268;2023-11-21T12:05:15;13.50;99.90
25482;DHT22;13395;50.752;4.268;2023-11-21T12:07:51;13.40;99.90
25482;DHT22;13395;50.752;4.268;2023-11-21T12:10:22;13.40;99.90
25482;DHT22;13395;50.752;4.268;2023-11-21T12:12:52;13.50;99.90
25482;DHT22;13395;50.752;4.268;2023-11-21T12:15:18;13.50;99.90
25482;DHT22;13395;50.752;4.268;2023-11-21T12:17:45;13.50;99.90
25482;DHT22;13395;50.752;4.268;2023-11-21T12:20:15;13.60;99.90
25482;DHT22;13395;50.752;4.268;2023-11-21T12:22:49;13.60;99.90
25482;DHT22;13395;50.752;4.268;2023-11-21T12:25:23;13.50;99.90
25482;DHT22;13395;50.752;4.268;2023-11-21T12:27:50;13.30;99.90
25482;DHT22;13395;50.752;4.268;2023-11-21T12:30:19;13.10;99.90
25482;DHT22;13395;50.752;4.268;2023-11-21T12:32:51;12.90;99.90
25482;DHT22;13395;50.752;4.268;2023-11-21T12:35:18;12.90;99.90
25482;DHT22;13395;50.752;4.268;2023-11-21T12:37:48;12.90;99.90
25482;DHT22;13395;50.752;4.268;2023-11-21T12:40:15;12.90;99.90
25482;DHT22;13395;50.752;4.268;2023-11-21T12:43:01;12.90;99.90
25482;DHT22;13395;50.752;4.268;2023-11-21T12:45:29;12.90;99.90
25482;DHT22;13395;50.752;4.268;2023-11-21T12:47:58;13.00;99.90
25482;DHT22;13395;50.752;4.268;2023-11-21T12:50:27;13.00;99.90
25482;DHT22;13395;50.752;4.268;2023-11-21T12:53:02;13.00;99.90
25482;DHT22;13395;50.752;4.268;2023-11-21T12:55:31;12.90;99.90
25482;DHT22;13395;50.752;4.268;2023-11-21T12:57:57;12.70;99.90
25482;DHT22;13395;50.752;4.268;2023-11-21T13:00:32;12.70;99.90
25482;DHT22;13395;50.752;4.268;2023-11-21T13:02:59;12.70;99.90
25482;DHT22;13395;50.752;4.268;2023-11-21T13:07:50;12.70;99.90
25482;DHT22;13395;50.752;4.268;2023-11-21T13:10:21;12.80;99.90
25482;DHT22;13395;50.752;4.268;2023-11-21T13:12:51;12.90;99.90
25482;DHT22;13395;50.752;4.268;2023-11-21T13:15:17;13.00;99.90
25482;DHT22;13395;50.752;4.268;2023-11-21T13:17:43;12.90;99.90
25482;DHT22;13395;50.752;4.268;2023-11-21T13:20:13;12.80;99.90
25482;DHT22;13395;50.752;4.268;2023-11-21T13:25:11;12.80;99.90
25482;DHT22;13395;50.752;4.268;2023-11-21T13:27:36;12.80;99.90
25482;DHT22;13395;50.752;4.268;2023-11-21T13:30:02;13.00;99.90
25482;DHT22;13395;50.752;4.268;2023-11-21T13:32:29;13.00;99.90
25482;DHT22;13395;50.752;4.268;2023-11-21T13:34:54;13.20;99.90
25482;DHT22;13395;50.752;4.268;2023-11-21T13:37:20;13.20;99.90
25482;DHT22;13395;50.752;4.268;2023-11-21T13:39:46;13.30;99.90
25482;DHT22;13395;50.752;4.268;2023-11-21T13:42:15;13.40;99.90
25482;DHT22;13395;50.752;4.268;2023-11-21T13:44:42;13.50;99.90
25482;DHT22;13395;50.752;4.268;2023-11-21T13:47:12;13.70;99.90
25482;DHT22;13395;50.752;4.268;2023-11-21T13:49:37;13.60;99.90
25482;DHT22;13395;50.752;4.268;2023-11-21T13:52:06;13.60;99.90
25482;DHT22;13395;50.752;4.268;2023-11-21T13:54:32;13.50;99.90
25482;DHT22;13395;50.752;4.268;2023-11-21T13:56:58;13.40;99.90
25482;DHT22;13395;50.752;4.268;2023-11-21T13:59:25;13.30;99.90
25482;DHT22;13395;50.752;4.268;2023-11-21T14:01:54;13.30;99.90
25482;DHT22;13395;50.752;4.268;2023-11-21T14:04:21;13.20;99.90
25482;DHT22;13395;50.752;4.268;2023-11-21T14:06:56;13.00;99.90
25482;DHT22;13395;50.752;4.268;2023-11-21T14:09:22;12.90;99.90
25482;DHT22;13395;50.752;4.268;2023-11-21T14:11:54;12.90;99.90
25482;DHT22;13395;50.752;4.268;2023-11-21T14:14:26;12.90;99.90
25482;DHT22;13395;50.752;4.268;2023-11-21T14:16:53;12.90;99.90
25482;DHT22;13395;50.752;4.268;2023-11-21T14:19:21;12.80;99.90
25482;DHT22;13395;50.752;4.268;2023-11-21T14:21:47;12.60;99.90
25482;DHT22;13395;50.752;4.268;2023-11-21T14:24:16;12.50;99.90
25482;DHT22;13395;50.752;4.268;2023-11-21T14:26:46;12.40;99.90
25482;DHT22;13395;50.752;4.268;2023-11-21T14:29:12;12.50;99.90
25482;DHT22;13395;50.752;4.268;2023-11-21T14:31:42;12.50;99.90
25482;DHT22;13395;50.752;4.268;2023-11-21T14:34:09;12.60;99.90
25482;DHT22;13395;50.752;4.268;2023-11-21T14:36:36;12.50;99.90
25482;DHT22;13395;50.752;4.268;2023-11-21T14:39:05;12.60;99.90
25482;DHT22;13395;50.752;4.268;2023-11-21T14:41:37;12.60;99.90
25482;DHT22;13395;50.752;4.268;2023-11-21T14:44:04;12.70;99.90
25482;DHT22;13395;50.752;4.268;2023-11-21T14:46:33;12.70;99.90
25482;DHT22;13395;50.752;4.268;2023-11-21T14:49:00;12.60;99.90
25482;DHT22;13395;50.752;4.268;2023-11-21T14:51:48;12.50;99.90
25482;DHT22;13395;50.752;4.268;2023-11-21T14:54:31;12.40;99.90
25482;DHT22;13395;50.752;4.268;2023-11-21T14:57:11;12.30;99.90
25482;DHT22;13395;50.752;4.268;2023-11-21T14:59:44;12.30;99.90
25482;DHT22;13395;50.752;4.268;2023-11-21T15:02:12;12.30;99.90
25482;DHT22;13395;50.752;4.268;2023-11-21T15:04:42;12.20;99.90
25482;DHT22;13395;50.752;4.268;2023-11-21T15:07:08;12.20;99.90
25482;DHT22;13395;50.752;4.268;2023-11-21T15:09:34;12.20;99.90
25482;DHT22;13395;50.752;4.268;2023-11-21T15:12:05;12.20;99.90
25482;DHT22;13395;50.752;4.268;2023-11-21T15:14:50;12.20;99.90
25482;DHT22;13395;50.752;4.268;2023-11-21T15:17:19;12.20;99.90
25482;DHT22;13395;50.752;4.268;2023-11-21T15:19:56;12.20;99.90
25482;DHT22;13395;50.752;4.268;2023-11-21T15:22:22;12.20;99.90
25482;DHT22;13395;50.752;4.268;2023-11-21T15:24:49;12.20;99.90
25482;DHT22;13395;50.752;4.268;2023-11-21T15:27:16;12.40;99.90
25482;DHT22;13395;50.752;4.268;2023-11-21T15:29:42;12.40;99.90
25482;DHT22;13395;50.752;4.268;2023-11-21T15:32:09;12.30;99.90
25482;DHT22;13395;50.752;4.268;2023-11-21T15:34:35;12.30;99.90
25482;DHT22;13395;50.752;4.268;2023-11-21T15:37:01;12.10;99.90
25482;DHT22;13395;50.752;4.268;2023-11-21T15:39:26;12.00;99.90
25482;DHT22;13395;50.752;4.268;2023-11-21T15:41:59;12.00;99.90
25482;DHT22;13395;50.752;4.268;2023-11-21T15:44:28;12.00;99.90
25482;DHT22;13395;50.752;4.268;2023-11-21T15:46:55;12.00;99.90
25482;DHT22;13395;50.752;4.268;2023-11-21T15:49:21;11.90;99.90